Terminal Aerodrome Forecast
Issued by NWS

Current Version | Previous Version | Graphics & Text | Print | Product List | Glossary On
Versions: 1 2 3 4 5 6 7 8 9 10 11 12 13 14 15 16 17 18 19
685
FTUS41 KILN 171737
TAFLUK
TAF
KLUK 171737Z 1718/1818 VRB04KT P6SM FEW040 BKN060
     FM172000 34005KT P6SM VCSH BKN060
     FM172300 VRB03KT P6SM FEW060
     FM180900 00000KT 1/4SM FG BKN002
     FM181100 00000KT 3SM BR BKN002
     FM181300 VRB02KT P6SM SCT050=

USA.gov is the U.S. government's official web portal to all federal, state and local government web resources and services.